Portada
METAR-TAF:

METAR-TAF

Aeroports :

Salalah, Oman

latitud: 17-02N, longitud: 054-05E, altitud: 20 m

Observació

L'informe es va fer fa 50 minuts, a les 16:50 UTC
Vent 4 kt del Nord
Temperatura 26°C
Humitat 51%
Pressió 1013 hPa
Visibilitat 10 km o més
sense núvols per sota de 1500 mi sense presència de cumulonimbus.

METAR: OOSA 051650Z 36004KT CAVOK 26/15 Q1013 NOSIG

Hora: 21:40 (17:40 UTC)

Pronòstic

L'informe es va fer fa 0 minuts, a les 17:40 UTC
Pronòstic vàlid del 05 a les 18 UTC al 07 a les 00 UTC
Vent 3 kt amb direcció variable
Visibilitat 10 km o més
sense núvols per sota de 1500 mi sense presència de cumulonimbus.
Evolucionant progressivament
l' 06 a les 06 UTC al 06 a les 08 UTC
Vent 10 kt del Sud
Evolucionant progressivament
l' 06 a les 15 UTC al 06 a les 17 UTC
Vent 3 kt amb direcció variable

TAF: OOSA 051740Z 0518/0700 VRB03KT CAVOK BECMG 0606/0608 19010KT BECMG 0615/0617 VRB03KT

Observacions i pronòstics meteorològics de més de 4000 aeroports (METAR i TAF).

Les estacions disponibles són els punts grocs i vermells al mapa.

Posi el ratolí al punt desitjat per veure el nom de l'estació.

Feu clic per veure les observacions i els pronòstics meteorològics.

Per canviar el mapa: feu clic els botons verds amb una creu de color negre per apropar; al botó verd amb un guió per allunyar la imatge; o en les fletxes verdes per a mapes adjacents.


METAR-TAF: